createdAt,value
2022-10-14T04:00:49.264Z,93.96
2022-10-14T04:17:01.780Z,90.30
2022-10-14T04:19:40.375Z,83.82
2022-10-14T04:22:19.659Z,79.40
2022-10-14T04:24:59.393Z,75.67
2022-10-14T04:27:37.882Z,74.14
2022-10-14T04:30:16.508Z,72.62
2022-10-14T04:32:55.127Z,71.45
2022-10-14T04:36:30.565Z,71.66
2022-10-14T04:39:09.233Z,70.67
2022-10-14T04:41:47.792Z,71.31
2022-10-14T04:44:26.532Z,71.26
2022-10-14T04:47:05.121Z,71.20
2022-10-14T04:49:43.796Z,70.95
2022-10-14T04:52:22.628Z,70.59
2022-10-14T04:55:00.978Z,67.69
2022-10-14T04:57:45.555Z,66.67
2022-10-14T05:00:24.611Z,66.72
2022-10-14T05:03:03.323Z,67.20
2022-10-14T05:05:41.957Z,67.21
2022-10-14T05:08:20.538Z,67.98
2022-10-14T05:10:59.125Z,67.41
2022-10-14T05:13:39.367Z,67.83
2022-10-14T05:16:18.347Z,66.66
2022-10-14T05:18:57.300Z,66.55
2022-10-14T05:21:35.665Z,66.24
2022-10-14T05:24:13.882Z,65.22
2022-10-14T05:26:52.526Z,65.63
2022-10-14T05:29:29.542Z,66.22
2022-10-14T05:32:08.267Z,66.56
2022-10-14T05:34:46.830Z,66.85
2022-10-14T05:37:25.423Z,65.41
2022-10-14T05:40:04.715Z,66.04
2022-10-14T05:42:44.279Z,67.30
2022-10-14T05:45:23.244Z,63.73
2022-10-14T05:48:01.509Z,64.27
2022-10-14T05:50:40.192Z,65.12
2022-10-14T05:53:18.765Z,65.71
2022-10-14T05:56:09.294Z,63.89
2022-10-14T05:58:48.869Z,63.65
2022-10-14T06:01:27.592Z,62.53
2022-10-14T06:04:06.268Z,63.33
2022-10-14T06:06:44.769Z,62.07
2022-10-14T06:09:23.850Z,62.37
2022-10-14T06:12:02.696Z,62.72
2022-10-14T06:14:41.449Z,62.32
2022-10-14T06:17:20.114Z,62.47
2022-10-14T06:19:58.378Z,62.97
2022-10-14T06:22:36.983Z,63.18
2022-10-14T06:25:14.090Z,61.32
2022-10-14T06:27:52.743Z,61.90
2022-10-14T06:30:31.719Z,63.39
2022-10-14T06:33:09.944Z,61.35
2022-10-14T06:35:47.230Z,62.23
2022-10-14T06:38:25.795Z,61.03
2022-10-14T06:41:04.809Z,61.60
2022-10-14T06:43:42.821Z,61.09
2022-10-14T06:46:19.836Z,60.60
2022-10-14T06:48:57.009Z,60.41
2022-10-14T06:51:35.662Z,60.70
2022-10-14T06:54:14.183Z,60.46
2022-10-14T06:56:52.820Z,59.99
2022-10-14T06:59:31.477Z,60.39
2022-10-14T07:02:10.641Z,60.21
2022-10-14T07:04:48.645Z,60.66
2022-10-14T07:07:27.253Z,62.00
2022-10-14T07:10:04.453Z,60.73
2022-10-14T07:12:43.015Z,61.40
2022-10-14T07:15:21.564Z,60.64
2022-10-14T07:17:58.613Z,60.61
2022-10-14T07:20:35.609Z,60.26
2022-10-14T07:23:12.686Z,61.10
2022-10-14T07:25:51.247Z,60.93
2022-10-14T07:28:28.552Z,60.98
2022-10-14T07:31:08.258Z,57.92
2022-10-14T07:33:45.606Z,58.35
2022-10-14T07:36:22.943Z,58.84
2022-10-14T07:39:01.234Z,60.99
2022-10-14T07:41:39.911Z,59.41
2022-10-14T07:44:21.302Z,60.33
2022-10-14T07:47:03.186Z,58.51
2022-10-14T07:49:40.530Z,59.12
2022-10-14T07:52:19.606Z,59.84
2022-10-14T07:54:57.868Z,60.78
2022-10-14T07:57:36.398Z,58.43
2022-10-14T08:00:13.644Z,58.78
2022-10-14T08:02:52.761Z,59.39
2022-10-14T08:05:38.217Z,59.33
2022-10-14T08:08:07.375Z,59.33
2022-10-14T08:10:34.897Z,58.86
2022-10-14T08:13:02.407Z,59.01
2022-10-14T08:15:34.005Z,57.74
2022-10-14T08:18:01.366Z,58.66
2022-10-14T08:20:28.783Z,56.53
2022-10-14T08:22:56.434Z,57.48
2022-10-14T08:25:23.898Z,56.31
2022-10-14T08:27:51.279Z,56.33
2022-10-14T08:30:19.420Z,55.90
2022-10-14T08:32:47.406Z,53.48
2022-10-14T08:35:15.020Z,53.23
2022-10-14T08:37:42.627Z,52.18
2022-10-14T08:40:11.477Z,50.87
2022-10-14T08:42:50.209Z,53.89
2022-10-14T08:45:27.098Z,51.69
2022-10-14T08:51:32.022Z,54.46
2022-10-14T08:54:06.039Z,54.46
2022-10-14T08:56:33.984Z,60.82
2022-10-14T08:59:05.462Z,58.80
2022-10-14T09:01:34.443Z,57.59
2022-10-14T09:04:06.651Z,56.76
2022-10-14T09:06:37.464Z,58.71
2022-10-14T09:09:26.614Z,56.46
2022-10-14T09:12:08.937Z,56.40
2022-10-14T09:15:14.343Z,56.24
2022-10-14T09:18:01.948Z,54.60
2022-10-14T09:20:40.373Z,54.96
2022-10-14T09:23:19.295Z,53.50
2022-10-14T09:26:12.235Z,53.48
2022-10-14T09:28:54.975Z,52.49
2022-10-14T09:34:16.528Z,54.12
2022-10-14T09:37:00.668Z,56.33
2022-10-14T09:39:39.930Z,54.88
2022-10-14T09:42:20.225Z,55.42
2022-10-14T09:45:18.734Z,55.72
2022-10-14T09:48:07.594Z,54.08
2022-10-14T09:50:52.771Z,54.56
2022-10-14T09:53:34.942Z,54.28
2022-10-14T09:56:13.221Z,54.58
2022-10-14T09:58:55.308Z,54.95
2022-10-14T10:01:40.753Z,54.31
2022-10-14T10:04:41.725Z,55.50
2022-10-14T10:07:34.871Z,57.42
2022-10-14T10:10:20.756Z,57.11
2022-10-14T10:12:59.399Z,56.43
2022-10-14T10:15:36.412Z,56.86
2022-10-14T10:18:19.876Z,57.81
2022-10-14T10:21:06.384Z,58.39
2022-10-14T10:23:57.688Z,55.51
2022-10-14T10:26:34.949Z,54.24
2022-10-14T10:29:21.932Z,53.63
2022-10-14T10:32:30.748Z,54.10
2022-10-14T10:35:38.080Z,54.30
2022-10-14T10:38:25.955Z,53.95
2022-10-14T10:41:09.768Z,54.36
2022-10-14T10:44:03.340Z,53.50
2022-10-14T10:47:04.062Z,52.90
2022-10-14T10:49:50.146Z,53.20
2022-10-14T10:52:41.154Z,53.48
2022-10-14T10:55:39.793Z,54.06
2022-10-14T10:58:45.905Z,52.93
2022-10-14T11:01:45.596Z,52.63
2022-10-14T11:04:32.923Z,53.14
2022-10-14T11:07:37.965Z,52.94
2022-10-14T11:10:58.418Z,53.55
2022-10-14T11:13:32.423Z,53.69
2022-10-14T11:16:23.572Z,53.75
2022-10-14T11:18:57.715Z,53.65
2022-10-14T11:21:47.348Z,53.97
2022-10-14T11:24:29.756Z,54.66
2022-10-14T11:27:14.105Z,55.56
2022-10-14T11:30:01.397Z,54.93
2022-10-14T11:32:48.185Z,54.47
2022-10-14T11:35:43.160Z,56.49
2022-10-14T11:38:44.033Z,55.18
2022-10-14T11:41:32.150Z,55.29
2022-10-14T11:44:37.943Z,54.25
2022-10-14T11:47:10.024Z,54.14
2022-10-14T11:50:00.094Z,54.29
2022-10-14T11:52:32.854Z,53.25
2022-10-14T11:55:04.641Z,52.08
2022-10-14T11:57:36.326Z,52.41
2022-10-14T12:00:12.919Z,53.44
2022-10-14T12:03:11.210Z,52.01
2022-10-14T12:05:56.682Z,53.16
2022-10-14T12:08:55.362Z,52.24
2022-10-14T12:11:37.199Z,50.89
2022-10-14T12:14:19.281Z,51.38
2022-10-14T12:16:56.483Z,50.11
2022-10-14T12:19:33.513Z,49.46
2022-10-14T12:22:25.130Z,48.99
2022-10-14T12:25:08.393Z,49.40
2022-10-14T12:27:45.386Z,49.53
2022-10-14T12:30:39.591Z,48.47
2022-10-14T12:33:22.384Z,49.11
2022-10-14T12:37:28.911Z,47.85
2022-10-14T12:40:14.937Z,47.80
2022-10-14T12:42:57.807Z,48.58
2022-10-14T12:45:36.412Z,47.42
2022-10-14T12:48:19.357Z,47.81
2022-10-14T12:51:16.119Z,47.06
2022-10-14T12:54:12.363Z,45.95
2022-10-14T12:56:54.597Z,45.14
2022-10-14T12:59:36.759Z,45.57
2022-10-14T13:02:43.541Z,46.46
2022-10-14T13:05:35.186Z,46.65
2022-10-14T13:08:16.517Z,46.36
2022-10-14T13:10:54.510Z,46.78
2022-10-14T13:13:53.451Z,45.97
2022-10-14T13:16:34.030Z,46.04
2022-10-14T13:19:35.119Z,46.77
2022-10-14T13:22:18.357Z,47.24
2022-10-14T13:25:19.903Z,48.06
2022-10-14T13:28:02.311Z,48.22
2022-10-14T13:31:05.259Z,48.22
2022-10-14T13:33:46.344Z,48.71
2022-10-14T13:36:36.920Z,49.00
2022-10-14T13:39:14.520Z,49.39
2022-10-14T13:41:51.566Z,50.40
2022-10-14T13:44:28.538Z,50.26
2022-10-14T13:47:07.244Z,52.15
2022-10-14T13:49:44.230Z,50.21
2022-10-14T13:52:24.873Z,50.68
2022-10-14T13:55:16.120Z,50.99
2022-10-14T13:58:13.194Z,51.83
2022-10-14T14:01:00.722Z,53.79
2022-10-14T14:03:40.274Z,54.04
2022-10-14T14:06:20.166Z,52.44
2022-10-14T14:09:03.125Z,52.06
2022-10-14T14:11:41.251Z,51.57
2022-10-14T14:14:17.626Z,51.75
2022-10-14T14:16:56.502Z,52.31
2022-10-14T14:19:46.386Z,52.23
2022-10-14T14:22:29.896Z,52.53
2022-10-14T14:25:35.830Z,52.30
2022-10-14T14:28:12.715Z,53.05
2022-10-14T14:30:54.347Z,52.42
2022-10-14T14:33:29.478Z,52.34
2022-10-14T14:36:01.750Z,52.66
2022-10-14T14:38:34.060Z,53.05
2022-10-14T14:41:05.235Z,53.07
2022-10-14T14:43:35.842Z,53.48
2022-10-14T14:46:05.424Z,53.75
2022-10-14T14:48:33.582Z,53.39
2022-10-14T14:51:00.995Z,53.90
2022-10-14T14:53:31.318Z,53.96
2022-10-14T14:56:02.836Z,54.33
2022-10-14T14:58:33.047Z,55.16
2022-10-14T15:01:00.363Z,55.58
2022-10-14T15:03:29.248Z,55.49
2022-10-14T15:05:59.510Z,56.22
2022-10-14T15:08:29.183Z,56.39
2022-10-14T15:10:57.261Z,56.69
2022-10-14T15:13:49.316Z,57.11
2022-10-14T15:16:33.729Z,57.51
2022-10-14T15:19:20.415Z,58.30
2022-10-14T15:22:08.699Z,58.38
2022-10-14T15:24:36.101Z,58.74
2022-10-14T15:27:30.205Z,58.69
2022-10-14T15:30:23.936Z,58.95
2022-10-14T15:32:52.040Z,59.35
2022-10-14T15:35:20.543Z,59.41
2022-10-14T15:37:48.916Z,59.57
2022-10-14T15:40:19.006Z,59.72
2022-10-14T15:42:49.654Z,59.90
2022-10-14T15:45:17.404Z,60.41
2022-10-14T15:47:45.355Z,60.47
2022-10-14T15:50:17.790Z,60.53
2022-10-14T15:52:48.928Z,60.63
2022-10-14T15:55:24.205Z,60.75
2022-10-14T15:57:52.351Z,61.00
2022-10-14T16:00:21.204Z,61.02
2022-10-14T16:02:50.474Z,61.27
2022-10-14T16:05:20.110Z,61.39
2022-10-14T16:07:48.406Z,61.46
2022-10-14T16:10:20.053Z,61.67
2022-10-14T16:12:47.370Z,61.84
2022-10-14T16:15:23.718Z,61.94
2022-10-14T16:18:02.375Z,61.01
2022-10-14T16:20:39.393Z,60.86
2022-10-14T16:23:17.564Z,61.50
2022-10-14T16:25:55.092Z,61.11
2022-10-14T16:28:32.226Z,61.35
2022-10-14T16:31:15.190Z,61.85
2022-10-14T16:33:54.697Z,61.43
2022-10-14T16:36:32.760Z,61.65
2022-10-14T16:39:12.061Z,61.70
2022-10-14T16:41:49.984Z,61.89
2022-10-14T16:44:27.516Z,61.87
2022-10-14T16:47:17.659Z,62.23
2022-10-14T16:49:56.998Z,62.44
2022-10-14T16:52:54.154Z,62.57
2022-10-14T16:55:31.994Z,62.59
2022-10-14T16:58:08.948Z,62.51
2022-10-14T17:00:47.596Z,62.55
2022-10-14T17:03:26.246Z,62.94
2022-10-14T17:06:08.202Z,63.27
2022-10-14T17:08:46.748Z,63.17
2022-10-14T17:11:28.149Z,63.71
2022-10-14T17:14:09.657Z,63.91
2022-10-14T17:16:50.606Z,63.86
2022-10-14T17:19:18.718Z,63.86
2022-10-14T17:21:46.520Z,65.25
2022-10-14T17:24:16.918Z,65.57
2022-10-14T17:26:45.233Z,65.67
2022-10-14T17:29:12.647Z,65.43
2022-10-14T17:31:39.974Z,65.54
2022-10-14T17:34:09.253Z,66.12
2022-10-14T17:36:36.684Z,66.07
2022-10-14T17:39:04.070Z,66.04
2022-10-14T17:41:32.065Z,66.63
2022-10-14T17:44:01.345Z,66.33
2022-10-14T17:46:29.701Z,66.61
2022-10-14T17:48:59.242Z,66.41
2022-10-14T17:51:27.233Z,66.48
2022-10-14T17:53:56.946Z,66.49
2022-10-14T17:56:24.516Z,67.10
2022-10-14T17:58:55.523Z,67.68
2022-10-14T18:01:36.795Z,67.77
2022-10-14T18:04:10.629Z,66.94
2022-10-14T18:06:38.269Z,67.19
2022-10-14T18:09:06.923Z,67.63
2022-10-14T18:11:56.581Z,67.93
2022-10-14T18:14:26.718Z,67.58
2022-10-14T18:16:54.330Z,67.30
2022-10-14T18:19:21.770Z,67.90
2022-10-14T18:21:49.069Z,68.14
2022-10-14T18:24:16.704Z,67.75
2022-10-14T18:26:44.017Z,67.94
2022-10-14T18:29:11.365Z,68.02
2022-10-14T18:31:39.745Z,68.70
2022-10-14T18:34:07.597Z,68.83
2022-10-14T18:36:34.909Z,68.20
2022-10-14T18:39:04.429Z,68.69
2022-10-14T18:41:31.732Z,68.23
2022-10-14T18:43:59.112Z,68.08
2022-10-14T18:46:28.494Z,68.39
2022-10-14T18:48:58.686Z,68.21
2022-10-14T18:51:27.489Z,68.15
2022-10-14T18:53:58.290Z,67.74
2022-10-14T18:56:27.422Z,68.33
2022-10-14T18:58:56.657Z,68.47
2022-10-14T19:01:24.192Z,68.23
2022-10-14T19:03:51.789Z,68.09
2022-10-14T19:06:20.416Z,68.42
2022-10-14T19:08:47.779Z,68.50
2022-10-14T19:11:20.293Z,68.53
2022-10-14T19:13:48.885Z,69.38
2022-10-14T19:16:17.142Z,68.73
2022-10-14T19:18:44.681Z,68.91
2022-10-14T19:21:23.009Z,66.85
2022-10-14T19:24:02.119Z,66.79
2022-10-14T19:26:42.234Z,66.63
2022-10-14T19:29:20.358Z,66.46
2022-10-14T19:31:57.496Z,66.70
2022-10-14T19:34:35.968Z,67.40
2022-10-14T19:37:13.008Z,67.07
2022-10-14T19:39:50.031Z,66.60
2022-10-14T19:42:27.187Z,67.15
2022-10-14T19:45:06.202Z,66.77
2022-10-14T19:47:44.424Z,66.79
2022-10-14T19:50:22.948Z,67.45
2022-10-14T19:53:00.014Z,68.00
2022-10-14T19:55:38.629Z,67.84
2022-10-14T19:58:15.732Z,67.58
2022-10-14T20:00:54.306Z,67.06
2022-10-14T20:03:32.958Z,66.92
2022-10-14T20:06:10.445Z,67.09
2022-10-14T20:08:48.942Z,67.54
2022-10-14T20:11:27.881Z,67.37
2022-10-14T20:14:05.952Z,67.46
2022-10-14T20:16:44.448Z,67.03
2022-10-14T20:19:21.620Z,66.98
2022-10-14T20:22:01.573Z,67.55
2022-10-14T20:24:39.994Z,66.88
2022-10-14T20:27:17.366Z,67.15
2022-10-14T20:29:54.426Z,67.71
2022-10-14T20:32:31.414Z,67.22
2022-10-14T20:35:14.838Z,67.55
2022-10-14T20:37:53.503Z,66.90
2022-10-14T20:40:30.683Z,67.32
2022-10-14T20:43:09.118Z,67.63
2022-10-14T20:45:46.167Z,67.16
2022-10-14T20:48:23.201Z,67.32
2022-10-14T20:51:05.341Z,67.06
2022-10-14T20:53:43.644Z,67.09
2022-10-14T20:56:20.668Z,67.01
2022-10-14T20:59:00.280Z,67.23
2022-10-14T21:01:38.060Z,67.15
2022-10-14T21:04:16.579Z,67.37
2022-10-14T21:06:53.692Z,67.20
2022-10-14T21:09:32.185Z,67.28
2022-10-14T21:12:09.248Z,67.74
2022-10-14T21:14:46.246Z,67.04
2022-10-14T21:17:23.303Z,67.33
2022-10-14T21:20:00.314Z,66.49
2022-10-14T21:22:28.150Z,66.49
2022-10-14T21:24:55.440Z,68.07
2022-10-14T21:27:22.981Z,68.38
2022-10-14T21:29:50.867Z,68.58
2022-10-14T21:32:18.205Z,68.67
2022-10-14T21:34:45.579Z,68.10
2022-10-14T21:37:14.262Z,68.30
2022-10-14T21:39:41.634Z,69.15
2022-10-14T21:42:09.001Z,68.73
2022-10-14T21:44:36.566Z,68.57
2022-10-14T21:47:03.905Z,68.45
2022-10-14T21:49:31.251Z,68.15
2022-10-14T21:51:58.870Z,68.00
2022-10-14T21:54:26.661Z,67.81
2022-10-14T21:56:53.962Z,67.94
2022-10-14T21:59:21.601Z,67.95
2022-10-14T22:01:48.911Z,68.24
2022-10-14T22:04:16.492Z,68.15
2022-10-14T22:06:43.823Z,68.14
2022-10-14T22:09:11.131Z,68.71
2022-10-14T22:11:40.122Z,68.77
2022-10-14T22:14:10.369Z,68.29
2022-10-14T22:16:37.702Z,67.83
2022-10-14T22:19:05.649Z,67.55
2022-10-14T22:21:33.748Z,67.93
2022-10-14T22:24:01.306Z,68.09
2022-10-14T22:26:29.749Z,68.51
2022-10-14T22:29:01.552Z,68.23
2022-10-14T22:31:29.510Z,68.58
2022-10-14T22:33:56.841Z,69.13
2022-10-14T22:36:25.421Z,68.98
2022-10-14T22:38:53.260Z,68.67
2022-10-14T22:41:20.979Z,69.09
2022-10-14T22:43:50.293Z,68.78
2022-10-14T22:46:21.444Z,68.82
2022-10-14T22:48:49.148Z,69.19
2022-10-14T22:51:17.901Z,68.59
2022-10-14T22:53:45.827Z,69.11
2022-10-14T22:56:15.410Z,68.71
2022-10-14T22:58:42.721Z,68.87
2022-10-14T23:01:13.816Z,68.63
2022-10-14T23:03:41.416Z,69.29
2022-10-14T23:06:10.234Z,69.02
2022-10-14T23:08:38.788Z,68.84
2022-10-14T23:11:06.405Z,69.10
2022-10-14T23:13:33.819Z,69.36
2022-10-14T23:16:05.958Z,69.14
2022-10-14T23:18:35.493Z,68.95
2022-10-14T23:21:20.671Z,69.58
2022-10-14T23:23:48.433Z,69.75
2022-10-14T23:26:27.485Z,67.51
2022-10-14T23:29:09.784Z,67.50
2022-10-14T23:31:48.313Z,67.32
2022-10-14T23:34:25.314Z,67.13
2022-10-14T23:37:02.474Z,66.88
2022-10-14T23:39:40.983Z,67.06
2022-10-14T23:42:18.064Z,66.95
2022-10-14T23:44:56.632Z,66.86
2022-10-14T23:47:33.693Z,67.06
2022-10-14T23:50:10.684Z,67.69
2022-10-14T23:52:49.331Z,66.85
2022-10-14T23:55:26.610Z,67.34
2022-10-14T23:58:04.950Z,67.55
